.
WxDataArchive / Data Records for 2012-07-19
2012-07-18 July 2012 2012-07-20

Data Records for Thursday, 19 July 2012

Time	Temp	Chill	HIndex	Humid	Dewpt	 Wind 	HiWind	WindDir	Rain 	Barom 
-----	----	-----	------	-----	-----	------	------	-------	-----	----- 
00:00	76.3	76.3	77.0	86	71.8	0	3	68	0.00	29.903 
00:05	76.3	76.3	77.0	86	71.8	0	2	68	0.00	29.903 
00:10	76.3	76.3	77.0	86	71.8	0	2	68	0.00	29.903 
00:15	76.1	76.1	76.6	86	71.6	0	0	---	0.00	29.899 
00:20	76.1	76.1	76.6	86	71.6	0	1	68	0.00	29.899 
00:25	76.0	76.0	76.5	86	71.5	0	0	---	0.00	29.899 
00:30	76.0	76.0	76.4	87	71.8	0	1	68	0.00	29.887 
00:35	75.8	75.8	76.0	87	71.6	0	0	---	0.00	29.887 
00:40	75.6	75.6	75.6	87	71.4	0	1	68	0.00	29.887 
00:45	75.6	75.6	75.6	87	71.4	0	2	68	0.00	29.886 
00:50	75.4	75.4	75.1	88	71.6	0	0	---	0.00	29.886 
00:55	75.3	75.3	75.0	88	71.5	0	2	68	0.00	29.886 
01:00	75.3	75.3	75.0	88	71.5	0	1	68	0.00	29.887 
01:05	75.1	75.1	74.6	88	71.3	0	0	---	0.00	29.887 
01:10	75.1	75.1	74.6	88	71.3	0	0	---	0.00	29.887 
01:15	74.9	74.9	74.9	88	71.1	0	1	68	0.00	29.913 
01:20	74.9	74.9	74.9	88	71.1	0	1	68	0.00	29.913 
01:25	74.7	74.7	74.7	88	70.9	0	0	---	0.00	29.913 
01:30	74.7	74.7	74.7	88	70.9	0	0	---	0.00	29.917 
01:35	74.6	74.6	74.6	89	71.1	0	0	---	0.00	29.917 
01:40	74.6	74.6	74.6	89	71.1	0	0	---	0.00	29.917 
01:45	74.6	74.6	74.6	89	71.1	0	0	---	0.00	29.916 
01:50	74.6	74.6	74.6	89	71.1	0	0	---	0.00	29.916 
01:55	74.6	74.6	74.6	89	71.1	0	0	---	0.00	29.916 
02:00	74.4	74.4	74.4	89	70.9	0	0	---	0.00	29.911 
02:05	74.4	74.4	74.4	90	71.3	0	1	68	0.00	29.911 
02:10	74.4	74.4	74.4	90	71.3	0	1	68	0.00	29.911 
02:15	74.4	74.4	74.4	90	71.3	0	0	---	0.00	29.905 
02:20	74.4	74.4	74.4	90	71.3	0	0	---	0.00	29.905 
02:25	74.4	74.4	74.4	90	71.3	0	0	---	0.00	29.905 
02:30	74.2	74.2	74.2	91	71.4	0	0	---	0.00	29.899 
02:35	74.2	74.2	74.2	91	71.4	0	0	---	0.00	29.899 
02:40	74.2	74.2	74.2	91	71.4	0	0	---	0.00	29.899 
02:45	74.0	74.0	74.0	91	71.2	0	0	---	0.00	29.906 
02:50	74.0	74.0	74.0	91	71.2	0	0	---	0.00	29.906 
02:55	74.0	74.0	74.0	91	71.2	0	0	---	0.00	29.906 
03:00	74.0	74.0	74.0	92	71.5	0	0	---	0.00	29.914 
03:05	74.0	74.0	74.0	92	71.5	0	0	---	0.00	29.914 
03:10	74.2	74.2	74.2	92	71.7	0	2	68	0.00	29.914 
03:15	74.4	74.4	74.4	92	71.9	1	3	68	0.00	29.914 
03:20	74.6	74.6	74.6	92	72.1	1	3	315	0.00	29.914 
03:25	74.6	74.6	74.6	92	72.1	0	1	315	0.00	29.914 
03:30	74.7	74.7	74.7	92	72.2	0	0	---	0.00	29.907 
03:35	74.7	74.7	74.7	91	71.9	0	1	315	0.00	29.907 
03:40	74.7	74.7	74.7	91	71.9	0	1	315	0.00	29.907 
03:45	74.7	74.7	74.7	91	71.9	0	1	315	0.00	29.901 
03:50	74.7	74.7	74.7	91	71.9	0	0	---	0.00	29.901 
03:55	74.7	74.7	74.7	91	71.9	0	0	---	0.00	29.901 
04:00	74.7	74.7	74.7	91	71.9	0	1	315	0.00	29.902 
04:05	74.7	74.7	74.7	91	71.9	0	0	---	0.00	29.902 
04:10	74.6	74.6	74.6	91	71.8	0	2	315	0.00	29.902 
04:15	74.6	74.6	74.6	91	71.8	0	2	315	0.00	29.887 
04:20	74.6	74.6	74.6	90	71.5	0	2	315	0.00	29.887 
04:25	74.4	74.4	74.4	90	71.3	1	2	315	0.00	29.887 
04:30	74.4	74.4	74.4	89	70.9	0	1	315	0.00	29.876 
04:35	74.4	74.4	74.4	89	70.9	0	0	---	0.00	29.876 
04:40	74.4	74.4	74.4	89	70.9	0	1	315	0.00	29.876 
04:45	74.4	74.4	74.4	90	71.3	0	1	315	0.00	29.878 
04:50	74.4	74.4	74.4	90	71.3	0	0	---	0.00	29.878 
04:55	74.4	74.4	74.4	90	71.3	0	1	315	0.00	29.878 
05:00	74.4	74.4	74.4	90	71.3	0	0	---	0.00	29.876 
05:05	74.4	74.4	74.4	91	71.6	0	0	---	0.00	29.876 
05:10	74.2	74.2	74.2	91	71.4	0	2	315	0.00	29.876 
05:15	74.2	74.2	74.2	91	71.4	0	1	315	0.00	29.862 
05:20	74.2	74.2	74.2	92	71.7	0	1	315	0.00	29.862 
05:25	74.2	74.2	74.2	92	71.7	0	1	315	0.00	29.862 
05:30	74.2	74.2	74.2	92	71.7	0	0	---	0.00	29.877 
05:35	74.2	74.2	74.2	92	71.7	0	1	315	0.00	29.877 
05:40	74.2	74.2	74.2	92	71.7	0	2	315	0.00	29.877 
05:45	74.2	74.2	74.2	92	71.7	0	2	315	0.00	29.874 
05:50	74.2	74.2	74.2	92	71.7	0	0	---	0.00	29.874 
05:55	74.2	74.2	74.2	92	71.7	0	0	---	0.00	29.874 
06:00	74.2	74.2	74.2	92	71.7	1	2	315	0.00	29.907 
06:05	74.2	74.2	74.2	92	71.7	1	3	315	0.00	29.907 
06:10	73.9	73.9	73.9	92	71.4	3	7	315	0.00	29.907 
06:15	72.7	72.7	72.7	91	69.9	5	11	315	0.12	29.951 
06:20	71.6	71.6	71.6	92	69.1	3	8	270	0.08	29.951 
06:25	70.9	70.9	70.9	92	68.5	3	7	315	0.10	29.951 
06:30	70.6	70.6	70.6	92	68.2	1	4	315	0.06	29.925 
06:35	70.4	70.4	70.4	93	68.3	0	1	292	0.00	29.925 
06:40	70.3	70.3	70.3	93	68.2	0	1	292	0.03	29.925 
06:45	70.3	70.3	70.3	93	68.2	0	1	292	0.01	29.932 
06:50	70.3	70.3	70.3	94	68.5	0	2	292	0.00	29.932 
06:55	70.3	70.3	70.3	94	68.5	0	1	292	0.02	29.932 
07:00	70.3	70.3	70.3	94	68.5	0	1	292	0.02	29.927 
07:05	70.3	70.3	70.3	94	68.5	0	1	292	0.03	29.927 
07:10	70.3	70.3	70.3	94	68.5	0	1	292	0.02	29.927 
07:15	70.3	70.3	70.3	94	68.5	0	3	292	0.03	29.887 
07:20	70.3	70.3	70.3	95	68.8	0	2	292	0.00	29.887 
07:25	70.4	70.4	70.4	95	68.9	1	3	292	0.00	29.887 
07:30	70.4	70.4	70.4	95	68.9	0	1	292	0.01	29.895 
07:35	70.4	70.4	70.4	95	68.9	0	1	292	0.00	29.895 
07:40	70.4	70.4	70.4	95	68.9	0	0	---	0.00	29.895 
07:45	70.4	70.4	70.4	95	68.9	0	1	292	0.01	29.911 
07:50	70.6	70.6	70.6	95	69.1	1	3	292	0.00	29.911 
07:55	70.6	70.6	70.6	95	69.1	2	4	292	0.01	29.911 
08:00	70.6	70.6	70.6	95	69.1	2	4	248	0.02	29.968 
08:05	70.6	70.6	70.6	95	69.1	1	4	248	0.00	29.968 
08:10	70.3	70.3	70.3	95	68.8	1	3	248	0.01	29.968 
08:15	70.3	70.3	70.3	95	68.8	1	3	248	0.00	29.957 
08:20	70.1	70.1	70.1	95	68.6	1	3	315	0.02	29.957 
08:25	70.1	70.1	70.1	95	68.6	1	2	315	0.01	29.957 
08:30	70.1	70.1	70.1	95	68.6	0	2	315	0.01	29.955 
08:35	70.1	70.1	70.1	95	68.6	1	4	315	0.01	29.955 
08:40	69.9	69.9	69.9	95	68.4	0	1	270	0.01	29.955 
08:45	69.9	69.9	69.9	95	68.4	0	4	270	0.01	29.943 
08:50	69.9	69.9	69.9	95	68.4	1	3	270	0.01	29.943 
08:55	69.9	69.9	69.9	95	68.4	0	3	270	0.01	29.943 
09:00	69.9	69.9	69.9	95	68.4	0	1	270	0.00	29.940 
09:05	69.9	69.9	69.9	95	68.4	0	1	270	0.01	29.940 
09:10	69.8	69.8	69.8	95	68.3	0	0	---	0.01	29.940 
09:15	69.8	69.8	69.8	96	68.6	0	1	270	0.00	29.919 
09:20	69.9	69.9	69.9	96	68.7	0	0	---	0.01	29.919 
09:25	70.1	70.1	70.1	96	68.9	0	1	270	0.01	29.919 
09:30	70.1	70.1	70.1	96	68.9	0	1	270	0.01	29.916 
09:35	70.1	70.1	70.1	96	68.9	0	1	270	0.00	29.916 
09:40	70.1	70.1	70.1	96	68.9	0	1	270	0.01	29.916 
09:45	70.1	70.1	70.1	96	68.9	0	1	270	0.00	29.931 
09:50	70.1	70.1	70.1	96	68.9	0	1	270	0.01	29.931 
09:55	70.1	70.1	70.1	96	68.9	0	1	270	0.00	29.931 
10:00	70.1	70.1	70.1	96	68.9	0	1	270	0.01	29.926 
10:05	70.1	70.1	70.1	96	68.9	0	1	270	0.01	29.926 
10:10	70.1	70.1	70.1	96	68.9	0	1	270	0.01	29.926 
10:15	70.3	70.3	70.3	96	69.1	0	1	270	0.01	29.916 
10:20	70.3	70.3	70.3	96	69.1	0	0	---	0.00	29.916 
10:25	70.3	70.3	70.3	96	69.1	0	1	270	0.00	29.916 
10:30	70.4	70.4	70.4	96	69.2	0	1	270	0.01	29.903 
10:35	70.4	70.4	70.4	96	69.2	0	1	270	0.00	29.903 
10:40	70.4	70.4	70.4	96	69.2	0	2	270	0.01	29.903 
10:45	70.4	70.4	70.4	96	69.2	0	2	270	0.00	29.924 
10:50	70.6	70.6	70.6	96	69.4	0	0	---	0.00	29.924 
10:55	70.6	70.6	70.6	96	69.4	0	1	270	0.00	29.924 
11:00	70.6	70.6	70.6	96	69.4	0	1	270	0.00	29.915 
11:05	70.6	70.6	70.6	96	69.4	0	1	270	0.01	29.915 
11:10	70.6	70.6	70.6	96	69.4	0	1	270	0.00	29.915 
11:15	70.6	70.6	70.6	96	69.4	0	1	270	0.00	29.901 
11:20	70.6	70.6	70.6	96	69.4	0	1	270	0.00	29.901 
11:25	70.4	70.4	70.4	96	69.2	0	1	270	0.00	29.901 
11:30	70.4	70.4	70.4	96	69.2	0	1	270	0.01	29.909 
11:35	70.4	70.4	70.4	96	69.2	0	2	270	0.00	29.909 
11:40	70.6	70.6	70.6	96	69.4	0	1	270	0.00	29.909 
11:45	70.6	70.6	70.6	96	69.4	0	1	270	0.00	29.901 
11:50	70.8	70.8	70.8	96	69.6	0	1	270	0.00	29.901 
11:55	70.9	70.9	70.9	96	69.7	0	1	135	0.01	29.901 
12:00	71.1	71.1	71.1	96	69.9	0	2	135	0.00	29.899 
12:05	71.1	71.1	71.1	96	69.9	0	1	135	0.00	29.899 
12:10	71.3	71.3	71.3	96	70.1	0	2	135	0.00	29.899 
12:15	71.1	71.1	71.1	96	69.9	1	3	315	0.00	29.916 
12:20	70.9	70.9	70.9	96	69.7	1	2	315	0.00	29.916 
12:25	71.1	71.1	71.1	96	69.9	0	1	315	0.00	29.916 
12:30	71.1	71.1	71.1	96	69.9	0	2	315	0.00	29.895 
12:35	71.1	71.1	71.1	96	69.9	0	2	315	0.00	29.895 
12:40	71.3	71.3	71.3	96	70.1	0	1	338	0.00	29.895 
12:45	71.5	71.5	71.5	96	70.3	0	3	338	0.00	29.897 
12:50	72.0	72.0	72.0	96	70.8	0	2	338	0.00	29.897 
12:55	72.3	72.3	72.3	96	71.1	0	3	68	0.00	29.897 
13:00	72.8	72.8	72.8	96	71.6	0	2	68	0.00	29.886 
13:05	73.2	73.2	73.2	96	72.0	1	2	68	0.00	29.886 
13:10	73.2	73.2	73.2	95	71.7	1	3	68	0.00	29.886 
13:15	73.7	73.7	73.7	95	72.2	0	2	90	0.00	29.882 
13:20	74.0	74.0	74.0	95	72.5	0	2	90	0.00	29.882 
13:25	74.0	74.0	74.0	94	72.2	0	2	90	0.00	29.882 
13:30	74.2	74.2	74.2	94	72.4	0	1	90	0.00	29.881 
13:35	74.4	74.4	74.4	93	72.2	0	3	90	0.00	29.881 
13:40	74.9	74.9	74.9	92	72.4	0	1	90	0.00	29.881 
13:45	75.4	75.4	74.7	91	72.6	0	2	90	0.00	29.868 
13:50	76.0	76.0	76.2	89	72.5	1	3	90	0.00	29.868 
13:55	76.3	76.3	76.8	88	72.5	0	2	90	0.00	29.868 
14:00	76.8	76.8	77.9	88	73.0	0	1	90	0.00	29.862 
14:05	77.4	77.4	79.2	84	72.2	1	3	90	0.00	29.862 
14:10	78.1	78.1	80.6	84	72.9	0	1	90	0.00	29.862 
14:15	78.6	78.6	81.5	81	72.3	1	5	90	0.00	29.858 
14:20	78.8	78.8	81.7	79	71.7	1	5	90	0.00	29.858 
14:25	79.4	79.4	82.7	77	71.5	0	2	90	0.00	29.858 
14:30	79.6	79.6	82.6	73	70.2	0	3	90	0.00	29.851 
14:35	79.9	79.9	83.3	74	70.8	0	2	90	0.00	29.851 
14:40	80.1	80.1	83.5	73	70.6	0	2	90	0.00	29.851 
14:45	80.3	80.3	83.9	73	70.8	0	2	90	0.00	29.853 
14:50	80.7	80.7	84.4	72	70.8	0	1	90	0.00	29.853 
14:55	82.0	82.0	87.1	73	72.5	0	1	90	0.00	29.853 
15:00	83.2	83.2	88.8	70	72.4	0	2	90	0.00	29.857 
15:05	84.0	84.0	89.8	68	72.3	0	3	90	0.00	29.857 
15:10	84.1	84.1	89.4	66	71.5	0	2	90	0.00	29.857 
15:15	84.1	84.1	89.4	66	71.5	0	1	90	0.00	29.857 
15:20	84.1	84.1	89.4	66	71.5	0	2	90	0.00	29.857 
15:25	84.1	84.1	88.8	64	70.6	0	2	90	0.00	29.857 
15:30	83.8	83.8	88.6	65	70.7	1	2	90	0.00	29.857 
15:35	83.4	83.4	88.1	66	70.8	0	1	90	0.00	29.857 
15:40	83.4	83.4	88.1	66	70.8	0	1	90	0.00	29.857 
15:45	83.4	83.4	88.4	67	71.3	1	3	90	0.00	29.856 
15:50	83.2	83.2	87.7	66	70.6	1	3	90	0.00	29.856 
15:55	82.8	82.8	87.2	67	70.7	0	2	90	0.00	29.856 
16:00	82.6	82.6	86.9	67	70.5	0	2	90	0.00	29.851 
16:05	82.8	82.8	87.5	68	71.1	0	2	90	0.00	29.851 
16:10	82.8	82.8	87.0	66	70.3	1	2	90	0.00	29.851 
16:15	83.0	83.0	87.6	67	70.9	0	1	90	0.00	29.848 
16:20	82.8	82.8	87.0	66	70.3	0	1	90	0.00	29.848 
16:25	82.8	82.8	87.2	67	70.7	0	0	---	0.00	29.848 
16:30	82.6	82.6	86.6	66	70.1	0	1	90	0.00	29.846 
16:35	82.4	82.4	86.1	65	69.4	0	0	---	0.00	29.846 
16:40	82.2	82.2	85.7	65	69.2	0	1	90	0.00	29.846 
16:45	82.2	82.2	85.9	66	69.7	0	0	---	0.00	29.842 
16:50	82.2	82.2	85.9	66	69.7	0	0	---	0.00	29.842 
16:55	82.2	82.2	86.1	67	70.1	0	3	90	0.00	29.842 
17:00	82.0	82.0	85.6	66	69.5	0	1	90	0.00	29.833 
17:05	82.0	82.0	85.8	67	69.9	0	1	90	0.00	29.833 
17:10	81.8	81.8	85.7	68	70.2	0	1	90	0.00	29.833 
17:15	81.8	81.8	85.5	67	69.7	0	2	90	0.00	29.833 
17:20	81.6	81.6	84.9	66	69.1	1	2	90	0.00	29.833 
17:25	81.6	81.6	84.9	66	69.1	0	2	90	0.00	29.833 
17:30	81.6	81.6	84.9	66	69.1	1	2	90	0.00	29.830 
17:35	81.8	81.8	85.3	66	69.3	0	2	90	0.00	29.830 
17:40	82.0	82.0	85.6	66	69.5	1	2	90	0.00	29.830 
17:45	82.2	82.2	85.7	65	69.2	0	2	90	0.00	29.830 
17:50	82.2	82.2	85.7	65	69.2	0	2	90	0.00	29.830 
17:55	82.2	82.2	85.7	65	69.2	0	1	90	0.00	29.830 
18:00	82.2	82.2	85.9	66	69.7	0	1	90	0.00	29.829 
18:05	82.2	82.2	85.9	66	69.7	0	2	90	0.00	29.829 
18:10	82.2	82.2	85.9	66	69.7	0	2	90	0.00	29.829 
18:15	82.2	82.2	86.1	67	70.1	0	1	90	0.00	29.834 
18:20	82.0	82.0	86.0	68	70.4	0	2	90	0.00	29.834 
18:25	82.0	82.0	85.8	67	69.9	0	1	90	0.00	29.834 
18:30	82.0	82.0	86.0	68	70.4	0	1	90	0.00	29.829 
18:35	82.0	82.0	86.0	68	70.4	0	0	---	0.00	29.829 
18:40	82.4	82.4	86.5	67	70.3	0	1	90	0.00	29.829 
18:45	82.8	82.8	87.0	66	70.3	0	2	90	0.00	29.818 
18:50	83.0	83.0	87.1	65	70.0	0	1	90	0.00	29.818 
18:55	83.2	83.2	87.5	65	70.2	0	0	---	0.00	29.818 
19:00	83.2	83.2	87.7	66	70.6	0	0	---	0.00	29.817 
19:05	83.2	83.2	87.7	66	70.6	0	0	---	0.00	29.817 
19:10	83.2	83.2	87.7	66	70.6	0	1	90	0.00	29.817 
19:15	83.0	83.0	87.6	67	70.9	0	0	---	0.00	29.815 
19:20	82.6	82.6	86.9	67	70.5	0	0	---	0.00	29.815 
19:25	82.2	82.2	86.1	67	70.1	0	0	---	0.00	29.815 
19:30	82.0	82.0	86.0	68	70.4	0	1	90	0.00	29.818 
19:35	82.0	82.0	86.2	69	70.8	0	1	90	0.00	29.818 
19:40	81.8	81.8	85.9	69	70.6	0	0	---	0.00	29.818 
19:45	81.6	81.6	85.7	70	70.8	0	0	---	0.00	29.817 
19:50	81.4	81.4	85.9	73	71.9	0	3	112	0.00	29.817 
19:55	80.9	80.9	85.1	74	71.8	0	3	112	0.00	29.817 
20:00	80.1	80.1	84.0	77	72.2	0	2	112	0.00	29.824 
20:05	79.2	79.2	82.5	79	72.1	0	1	112	0.00	29.824 
20:10	78.6	78.6	81.5	81	72.3	1	4	112	0.00	29.824 
20:15	78.3	78.3	81.0	83	72.7	0	2	112	0.00	29.823 
20:20	77.9	77.9	80.2	83	72.3	0	2	112	0.00	29.823 
20:25	77.6	77.6	79.6	84	72.4	1	3	112	0.00	29.823 
20:30	77.4	77.4	79.2	84	72.2	0	1	112	0.00	29.836 
20:35	77.2	77.2	78.8	85	72.3	0	0	---	0.00	29.836 
20:40	77.2	77.2	78.8	85	72.3	0	3	112	0.00	29.836 
20:45	77.0	77.0	78.4	85	72.1	0	2	112	0.00	29.840 
20:50	77.0	77.0	78.4	85	72.1	0	2	112	0.00	29.840 
20:55	76.8	76.8	78.0	85	71.9	0	1	112	0.00	29.840 
21:00	76.7	76.7	77.8	86	72.2	0	0	---	0.00	29.836 
21:05	76.7	76.7	77.8	86	72.2	0	0	---	0.00	29.836 
21:10	76.5	76.5	77.4	86	72.0	0	1	112	0.00	29.836 
21:15	76.5	76.5	77.3	87	72.3	0	2	112	0.00	29.836 
21:20	76.3	76.3	76.9	87	72.1	0	1	112	0.00	29.836 
21:25	76.3	76.3	76.9	87	72.1	0	3	112	0.00	29.836 
21:30	76.1	76.1	76.6	87	71.9	0	1	112	0.00	29.836 
21:35	76.1	76.1	76.5	88	72.3	2	4	112	0.00	29.836 
21:40	76.0	76.0	76.3	88	72.2	1	4	112	0.00	29.836 
21:45	76.0	76.0	76.2	89	72.5	1	4	90	0.00	29.842 
21:50	75.8	75.8	75.8	89	72.3	1	3	90	0.00	29.842 
21:55	75.6	75.6	75.4	89	72.1	0	2	90	0.00	29.842 
22:00	75.4	75.4	74.8	90	72.3	1	3	90	0.00	29.851 
22:05	75.3	75.3	74.7	90	72.2	1	4	90	0.00	29.851 
22:10	75.1	75.1	74.3	90	72.0	0	2	90	0.00	29.851 
22:15	75.1	75.1	74.3	90	72.0	0	3	90	0.00	29.855 
22:20	75.1	75.1	74.3	90	72.0	1	2	90	0.00	29.855 
22:25	75.1	75.1	74.3	90	72.0	0	2	90	0.00	29.855 
22:30	75.1	75.1	74.3	90	72.0	1	3	90	0.00	29.863 
22:35	75.1	75.1	74.3	90	72.0	1	2	90	0.00	29.863 
22:40	75.1	75.1	74.3	90	72.0	1	4	90	0.00	29.863 
22:45	74.9	74.9	74.9	90	71.8	2	6	90	0.00	29.869 
22:50	74.9	74.9	74.9	90	71.8	1	4	90	0.00	29.869 
22:55	74.7	74.7	74.7	90	71.6	2	5	90	0.00	29.869 
23:00	74.7	74.7	74.7	90	71.6	1	4	90	0.00	29.870 
23:05	74.6	74.6	74.6	90	71.5	2	4	90	0.00	29.870 
23:10	74.4	74.4	74.4	90	71.3	2	6	90	0.00	29.870 
23:15	74.2	74.2	74.2	90	71.1	1	3	90	0.00	29.870 
23:20	74.0	74.0	74.0	90	70.9	2	7	90	0.00	29.870 
23:25	73.9	73.9	73.9	90	70.8	2	5	90	0.00	29.870 
23:30	73.9	73.9	73.9	90	70.8	1	3	112	0.00	29.869 
23:35	73.9	73.9	73.9	90	70.8	0	3	90	0.00	29.869 
23:40	73.7	73.7	73.7	90	70.6	1	3	90	0.00	29.869 
23:45	73.5	73.5	73.5	90	70.4	0	2	90	0.00	29.872 
23:50	73.5	73.5	73.5	90	70.4	1	4	90	0.00	29.872 
23:55	73.3	73.3	73.3	90	70.2	1	3	90	0.00	29.872 

CoCoRaHS
IN-AL-39
A2 Web Hosting
Creative Commons License
GoDaddy
search engine by freefind advanced

loaded 2018-11-20 14:56:53 • last modified 2010-11-18 10:43:29
Privacy PolicyDisclaimer
• wx.awcolley.com is powered by PmWiki v.2002016 •
• all content (unless otherwise noted) © 2018 A W Colley